sensor_id;sensor_type;location;lat;lon;timestamp;P1;durP1;ratioP1;P2;durP2;ratioP2
62790;SDS011;48830;53.426;10.300;2022-11-15T00:00:34;33.07;;;20.40;;
62790;SDS011;48830;53.426;10.300;2022-11-15T00:03:19;34.97;;;22.37;;
62790;SDS011;48830;53.426;10.300;2022-11-15T00:06:05;36.03;;;21.43;;
62790;SDS011;48830;53.426;10.300;2022-11-15T00:08:49;35.27;;;21.60;;
62790;SDS011;48830;53.426;10.300;2022-11-15T00:11:33;32.77;;;21.20;;
62790;SDS011;48830;53.426;10.300;2022-11-15T00:14:17;32.23;;;20.77;;
62790;SDS011;48830;53.426;10.300;2022-11-15T00:17:01;36.83;;;21.20;;
62790;SDS011;48830;53.426;10.300;2022-11-15T00:19:45;36.60;;;21.70;;
62790;SDS011;48830;53.426;10.300;2022-11-15T00:22:32;34.33;;;20.50;;
62790;SDS011;48830;53.426;10.300;2022-11-15T00:25:17;35.80;;;21.90;;
62790;SDS011;48830;53.426;10.300;2022-11-15T00:28:01;33.07;;;21.30;;
62790;SDS011;48830;53.426;10.300;2022-11-15T00:30:46;33.07;;;20.90;;
62790;SDS011;48830;53.426;10.300;2022-11-15T00:33:30;34.30;;;21.77;;
62790;SDS011;48830;53.426;10.300;2022-11-15T00:36:15;35.47;;;21.13;;
62790;SDS011;48830;53.426;10.300;2022-11-15T00:38:59;35.40;;;20.90;;
62790;SDS011;48830;53.426;10.300;2022-11-15T00:41:43;34.17;;;21.23;;
62790;SDS011;48830;53.426;10.300;2022-11-15T00:44:26;33.50;;;20.50;;
62790;SDS011;48830;53.426;10.300;2022-11-15T00:47:10;35.50;;;20.63;;
62790;SDS011;48830;53.426;10.300;2022-11-15T00:49:54;33.10;;;20.67;;
62790;SDS011;48830;53.426;10.300;2022-11-15T00:52:38;31.20;;;20.00;;
62790;SDS011;48830;53.426;10.300;2022-11-15T00:55:22;32.57;;;20.03;;
62790;SDS011;48830;53.426;10.300;2022-11-15T00:58:06;32.83;;;20.37;;
62790;SDS011;48830;53.426;10.300;2022-11-15T01:00:50;32.30;;;20.30;;
62790;SDS011;48830;53.426;10.300;2022-11-15T01:03:35;30.97;;;19.60;;
62790;SDS011;48830;53.426;10.300;2022-11-15T01:06:19;32.20;;;20.17;;
62790;SDS011;48830;53.426;10.300;2022-11-15T01:09:03;30.77;;;19.53;;
62790;SDS011;48830;53.426;10.300;2022-11-15T01:11:47;33.50;;;19.87;;
62790;SDS011;48830;53.426;10.300;2022-11-15T01:14:31;35.20;;;19.90;;
62790;SDS011;48830;53.426;10.300;2022-11-15T01:17:15;32.37;;;19.27;;
62790;SDS011;48830;53.426;10.300;2022-11-15T01:19:59;29.57;;;18.93;;
62790;SDS011;48830;53.426;10.300;2022-11-15T01:22:43;30.67;;;19.43;;
62790;SDS011;48830;53.426;10.300;2022-11-15T01:25:27;31.67;;;19.20;;
62790;SDS011;48830;53.426;10.300;2022-11-15T01:28:11;28.87;;;18.93;;
62790;SDS011;48830;53.426;10.300;2022-11-15T01:30:57;31.27;;;18.07;;
62790;SDS011;48830;53.426;10.300;2022-11-15T01:33:42;28.60;;;18.73;;
62790;SDS011;48830;53.426;10.300;2022-11-15T01:36:25;28.33;;;18.30;;
62790;SDS011;48830;53.426;10.300;2022-11-15T01:39:09;28.50;;;18.80;;
62790;SDS011;48830;53.426;10.300;2022-11-15T01:41:53;32.03;;;19.40;;
62790;SDS011;48830;53.426;10.300;2022-11-15T01:44:39;29.80;;;18.17;;
62790;SDS011;48830;53.426;10.300;2022-11-15T01:47:28;29.17;;;18.40;;
62790;SDS011;48830;53.426;10.300;2022-11-15T01:50:16;27.80;;;16.67;;
62790;SDS011;48830;53.426;10.300;2022-11-15T01:53:03;26.57;;;17.53;;
62790;SDS011;48830;53.426;10.300;2022-11-15T01:55:47;29.43;;;17.13;;
62790;SDS011;48830;53.426;10.300;2022-11-15T01:58:31;28.73;;;16.67;;
62790;SDS011;48830;53.426;10.300;2022-11-15T02:01:16;26.03;;;16.93;;
62790;SDS011;48830;53.426;10.300;2022-11-15T02:04:23;27.97;;;17.87;;
62790;SDS011;48830;53.426;10.300;2022-11-15T02:07:10;29.27;;;16.63;;
62790;SDS011;48830;53.426;10.300;2022-11-15T02:10:00;28.33;;;16.67;;
62790;SDS011;48830;53.426;10.300;2022-11-15T02:12:48;27.00;;;16.90;;
62790;SDS011;48830;53.426;10.300;2022-11-15T02:15:35;27.00;;;16.93;;
62790;SDS011;48830;53.426;10.300;2022-11-15T02:19:12;27.87;;;17.90;;
62790;SDS011;48830;53.426;10.300;2022-11-15T02:25:14;30.13;;;18.30;;
62790;SDS011;48830;53.426;10.300;2022-11-15T02:40:49;28.60;;;16.87;;
62790;SDS011;48830;53.426;10.300;2022-11-15T02:43:46;24.67;;;16.17;;
62790;SDS011;48830;53.426;10.300;2022-11-15T02:46:41;26.87;;;17.20;;
62790;SDS011;48830;53.426;10.300;2022-11-15T02:49:55;23.50;;;15.47;;
62790;SDS011;48830;53.426;10.300;2022-11-15T02:52:46;25.13;;;14.87;;
62790;SDS011;48830;53.426;10.300;2022-11-15T02:55:35;24.73;;;15.33;;
62790;SDS011;48830;53.426;10.300;2022-11-15T03:08:17;26.33;;;15.50;;
62790;SDS011;48830;53.426;10.300;2022-11-15T03:11:03;25.27;;;15.00;;
62790;SDS011;48830;53.426;10.300;2022-11-15T03:14:08;25.67;;;16.20;;
62790;SDS011;48830;53.426;10.300;2022-11-15T03:19:45;25.63;;;15.10;;
62790;SDS011;48830;53.426;10.300;2022-11-15T03:22:33;24.27;;;14.50;;
62790;SDS011;48830;53.426;10.300;2022-11-15T03:25:22;24.17;;;15.43;;
62790;SDS011;48830;53.426;10.300;2022-11-15T03:28:09;25.90;;;16.00;;
62790;SDS011;48830;53.426;10.300;2022-11-15T03:31:00;24.23;;;14.93;;
62790;SDS011;48830;53.426;10.300;2022-11-15T03:34:07;26.73;;;15.87;;
62790;SDS011;48830;53.426;10.300;2022-11-15T03:36:56;29.43;;;17.10;;
62790;SDS011;48830;53.426;10.300;2022-11-15T03:39:40;25.70;;;16.03;;
62790;SDS011;48830;53.426;10.300;2022-11-15T03:42:33;25.73;;;16.17;;
62790;SDS011;48830;53.426;10.300;2022-11-15T03:45:28;26.73;;;16.73;;
62790;SDS011;48830;53.426;10.300;2022-11-15T03:48:21;26.37;;;16.60;;
62790;SDS011;48830;53.426;10.300;2022-11-15T03:51:07;24.97;;;15.63;;
62790;SDS011;48830;53.426;10.300;2022-11-15T03:53:52;27.03;;;16.07;;
62790;SDS011;48830;53.426;10.300;2022-11-15T03:56:36;27.23;;;16.43;;
62790;SDS011;48830;53.426;10.300;2022-11-15T03:59:20;25.80;;;16.43;;
62790;SDS011;48830;53.426;10.300;2022-11-15T04:02:04;26.27;;;15.33;;
62790;SDS011;48830;53.426;10.300;2022-11-15T04:04:48;24.50;;;15.47;;
62790;SDS011;48830;53.426;10.300;2022-11-15T04:07:32;26.00;;;16.40;;
62790;SDS011;48830;53.426;10.300;2022-11-15T04:10:16;26.07;;;16.07;;
62790;SDS011;48830;53.426;10.300;2022-11-15T04:13:01;26.63;;;15.80;;
62790;SDS011;48830;53.426;10.300;2022-11-15T04:15:46;25.03;;;15.53;;
62790;SDS011;48830;53.426;10.300;2022-11-15T04:18:30;28.60;;;15.70;;
62790;SDS011;48830;53.426;10.300;2022-11-15T04:21:14;21.93;;;14.57;;
62790;SDS011;48830;53.426;10.300;2022-11-15T04:24:17;24.10;;;14.60;;
62790;SDS011;48830;53.426;10.300;2022-11-15T04:27:01;25.00;;;14.70;;
62790;SDS011;48830;53.426;10.300;2022-11-15T04:29:45;27.00;;;16.57;;
62790;SDS011;48830;53.426;10.300;2022-11-15T04:32:28;22.93;;;14.43;;
62790;SDS011;48830;53.426;10.300;2022-11-15T04:35:12;25.53;;;15.37;;
62790;SDS011;48830;53.426;10.300;2022-11-15T04:37:56;24.00;;;14.73;;
62790;SDS011;48830;53.426;10.300;2022-11-15T04:40:41;28.57;;;16.50;;
62790;SDS011;48830;53.426;10.300;2022-11-15T04:43:25;24.90;;;15.80;;
62790;SDS011;48830;53.426;10.300;2022-11-15T04:46:09;25.77;;;14.80;;
62790;SDS011;48830;53.426;10.300;2022-11-15T04:48:53;24.60;;;15.13;;
62790;SDS011;48830;53.426;10.300;2022-11-15T04:51:37;25.17;;;16.10;;
62790;SDS011;48830;53.426;10.300;2022-11-15T04:54:21;26.30;;;15.83;;
62790;SDS011;48830;53.426;10.300;2022-11-15T04:57:05;28.37;;;16.43;;
62790;SDS011;48830;53.426;10.300;2022-11-15T04:59:49;28.73;;;16.87;;
62790;SDS011;48830;53.426;10.300;2022-11-15T05:02:33;30.37;;;17.07;;
62790;SDS011;48830;53.426;10.300;2022-11-15T05:05:36;29.27;;;17.07;;
62790;SDS011;48830;53.426;10.300;2022-11-15T05:08:20;29.83;;;18.50;;
62790;SDS011;48830;53.426;10.300;2022-11-15T05:11:04;28.07;;;16.73;;
62790;SDS011;48830;53.426;10.300;2022-11-15T05:13:48;27.80;;;17.33;;
62790;SDS011;48830;53.426;10.300;2022-11-15T05:16:32;28.83;;;17.47;;
62790;SDS011;48830;53.426;10.300;2022-11-15T05:19:16;30.27;;;18.53;;
62790;SDS011;48830;53.426;10.300;2022-11-15T05:22:00;29.80;;;17.60;;
62790;SDS011;48830;53.426;10.300;2022-11-15T05:24:44;31.50;;;18.23;;
62790;SDS011;48830;53.426;10.300;2022-11-15T05:27:28;31.87;;;17.77;;
62790;SDS011;48830;53.426;10.300;2022-11-15T05:30:12;30.23;;;18.37;;
62790;SDS011;48830;53.426;10.300;2022-11-15T05:32:56;27.47;;;16.80;;
62790;SDS011;48830;53.426;10.300;2022-11-15T05:35:41;29.23;;;18.50;;
62790;SDS011;48830;53.426;10.300;2022-11-15T05:38:29;29.03;;;16.90;;
62790;SDS011;48830;53.426;10.300;2022-11-15T05:41:13;27.33;;;16.97;;
62790;SDS011;48830;53.426;10.300;2022-11-15T05:44:01;26.93;;;17.10;;
62790;SDS011;48830;53.426;10.300;2022-11-15T05:46:49;26.30;;;16.10;;
62790;SDS011;48830;53.426;10.300;2022-11-15T05:49:39;28.93;;;16.67;;
62790;SDS011;48830;53.426;10.300;2022-11-15T05:52:25;25.53;;;16.33;;
62790;SDS011;48830;53.426;10.300;2022-11-15T05:55:14;23.53;;;15.83;;
62790;SDS011;48830;53.426;10.300;2022-11-15T05:57:59;25.67;;;15.40;;
62790;SDS011;48830;53.426;10.300;2022-11-15T06:00:44;25.10;;;15.50;;
62790;SDS011;48830;53.426;10.300;2022-11-15T06:03:28;25.17;;;15.67;;
62790;SDS011;48830;53.426;10.300;2022-11-15T06:06:12;28.90;;;16.43;;
62790;SDS011;48830;53.426;10.300;2022-11-15T06:08:56;24.77;;;15.50;;
62790;SDS011;48830;53.426;10.300;2022-11-15T06:11:40;24.57;;;15.23;;
62790;SDS011;48830;53.426;10.300;2022-11-15T06:14:24;26.80;;;15.70;;
62790;SDS011;48830;53.426;10.300;2022-11-15T06:17:08;25.53;;;15.93;;
62790;SDS011;48830;53.426;10.300;2022-11-15T06:19:52;24.70;;;15.53;;
62790;SDS011;48830;53.426;10.300;2022-11-15T06:22:36;23.63;;;15.93;;
62790;SDS011;48830;53.426;10.300;2022-11-15T06:25:20;26.63;;;15.20;;
62790;SDS011;48830;53.426;10.300;2022-11-15T06:28:04;26.77;;;16.20;;
62790;SDS011;48830;53.426;10.300;2022-11-15T06:30:48;29.40;;;16.07;;
62790;SDS011;48830;53.426;10.300;2022-11-15T06:33:32;24.60;;;15.80;;
62790;SDS011;48830;53.426;10.300;2022-11-15T06:36:16;27.23;;;15.50;;
62790;SDS011;48830;53.426;10.300;2022-11-15T06:39:01;25.83;;;15.93;;
62790;SDS011;48830;53.426;10.300;2022-11-15T06:41:45;23.57;;;14.90;;
62790;SDS011;48830;53.426;10.300;2022-11-15T06:44:29;23.67;;;15.53;;
62790;SDS011;48830;53.426;10.300;2022-11-15T06:47:13;24.67;;;16.30;;
62790;SDS011;48830;53.426;10.300;2022-11-15T06:49:57;25.53;;;15.73;;
62790;SDS011;48830;53.426;10.300;2022-11-15T06:52:41;26.27;;;16.57;;
62790;SDS011;48830;53.426;10.300;2022-11-15T06:55:25;25.87;;;16.40;;
62790;SDS011;48830;53.426;10.300;2022-11-15T06:58:08;26.40;;;15.43;;
62790;SDS011;48830;53.426;10.300;2022-11-15T07:00:52;26.77;;;15.50;;
62790;SDS011;48830;53.426;10.300;2022-11-15T07:03:38;24.77;;;15.17;;
62790;SDS011;48830;53.426;10.300;2022-11-15T07:06:24;24.73;;;15.70;;
62790;SDS011;48830;53.426;10.300;2022-11-15T07:09:08;25.37;;;16.23;;
62790;SDS011;48830;53.426;10.300;2022-11-15T07:11:51;27.67;;;16.57;;
62790;SDS011;48830;53.426;10.300;2022-11-15T07:14:35;31.43;;;20.27;;
62790;SDS011;48830;53.426;10.300;2022-11-15T07:17:19;26.70;;;17.47;;
62790;SDS011;48830;53.426;10.300;2022-11-15T07:20:03;24.10;;;15.43;;
62790;SDS011;48830;53.426;10.300;2022-11-15T07:22:47;24.50;;;16.27;;
62790;SDS011;48830;53.426;10.300;2022-11-15T07:25:32;23.47;;;15.17;;
62790;SDS011;48830;53.426;10.300;2022-11-15T07:28:16;24.30;;;15.07;;
62790;SDS011;48830;53.426;10.300;2022-11-15T07:31:04;25.07;;;15.43;;
62790;SDS011;48830;53.426;10.300;2022-11-15T07:33:49;22.87;;;14.70;;
62790;SDS011;48830;53.426;10.300;2022-11-15T07:36:33;27.07;;;15.83;;
62790;SDS011;48830;53.426;10.300;2022-11-15T07:39:17;23.37;;;14.37;;
62790;SDS011;48830;53.426;10.300;2022-11-15T07:42:01;25.33;;;15.93;;
62790;SDS011;48830;53.426;10.300;2022-11-15T07:45:04;23.97;;;15.63;;
62790;SDS011;48830;53.426;10.300;2022-11-15T07:47:49;25.30;;;15.93;;
62790;SDS011;48830;53.426;10.300;2022-11-15T07:50:33;22.97;;;15.07;;
62790;SDS011;48830;53.426;10.300;2022-11-15T07:53:17;25.43;;;15.47;;
62790;SDS011;48830;53.426;10.300;2022-11-15T07:56:01;25.80;;;15.93;;
62790;SDS011;48830;53.426;10.300;2022-11-15T07:58:45;24.80;;;15.73;;
62790;SDS011;48830;53.426;10.300;2022-11-15T08:01:29;25.87;;;15.40;;
62790;SDS011;48830;53.426;10.300;2022-11-15T08:04:13;26.40;;;17.17;;
62790;SDS011;48830;53.426;10.300;2022-11-15T08:06:58;28.27;;;15.97;;
62790;SDS011;48830;53.426;10.300;2022-11-15T08:09:42;26.80;;;16.53;;
62790;SDS011;48830;53.426;10.300;2022-11-15T08:12:27;25.03;;;16.17;;
62790;SDS011;48830;53.426;10.300;2022-11-15T08:15:12;24.37;;;15.30;;
62790;SDS011;48830;53.426;10.300;2022-11-15T08:17:56;26.63;;;15.47;;
62790;SDS011;48830;53.426;10.300;2022-11-15T08:20:42;23.77;;;15.50;;
62790;SDS011;48830;53.426;10.300;2022-11-15T08:23:26;26.80;;;16.70;;
62790;SDS011;48830;53.426;10.300;2022-11-15T08:26:11;28.77;;;16.77;;
62790;SDS011;48830;53.426;10.300;2022-11-15T08:28:55;21.63;;;14.00;;
62790;SDS011;48830;53.426;10.300;2022-11-15T08:31:38;24.57;;;14.30;;
62790;SDS011;48830;53.426;10.300;2022-11-15T08:34:22;21.10;;;14.17;;
62790;SDS011;48830;53.426;10.300;2022-11-15T08:37:06;25.50;;;15.33;;
62790;SDS011;48830;53.426;10.300;2022-11-15T08:39:50;21.80;;;14.50;;
62790;SDS011;48830;53.426;10.300;2022-11-15T08:42:34;21.97;;;14.13;;
62790;SDS011;48830;53.426;10.300;2022-11-15T08:45:19;24.07;;;13.83;;
62790;SDS011;48830;53.426;10.300;2022-11-15T08:48:03;19.27;;;12.97;;
62790;SDS011;48830;53.426;10.300;2022-11-15T08:50:47;21.33;;;13.23;;
62790;SDS011;48830;53.426;10.300;2022-11-15T08:53:31;18.63;;;13.07;;
62790;SDS011;48830;53.426;10.300;2022-11-15T08:56:15;18.30;;;12.43;;
62790;SDS011;48830;53.426;10.300;2022-11-15T08:58:59;20.37;;;13.07;;
62790;SDS011;48830;53.426;10.300;2022-11-15T09:01:43;19.97;;;12.30;;
62790;SDS011;48830;53.426;10.300;2022-11-15T09:04:26;19.03;;;12.17;;
62790;SDS011;48830;53.426;10.300;2022-11-15T09:07:10;17.45;;;11.85;;
62790;SDS011;48830;53.426;10.300;2022-11-15T09:09:55;16.25;;;11.73;;
62790;SDS011;48830;53.426;10.300;2022-11-15T09:12:39;16.20;;;10.70;;
62790;SDS011;48830;53.426;10.300;2022-11-15T09:15:23;15.10;;;10.48;;
62790;SDS011;48830;53.426;10.300;2022-11-15T09:18:07;13.57;;;9.30;;
62790;SDS011;48830;53.426;10.300;2022-11-15T09:20:51;13.35;;;8.90;;
62790;SDS011;48830;53.426;10.300;2022-11-15T09:23:38;11.65;;;8.50;;
62790;SDS011;48830;53.426;10.300;2022-11-15T09:26:22;12.40;;;8.55;;
62790;SDS011;48830;53.426;10.300;2022-11-15T09:29:06;12.02;;;8.38;;
62790;SDS011;48830;53.426;10.300;2022-11-15T09:31:53;11.63;;;8.82;;
62790;SDS011;48830;53.426;10.300;2022-11-15T09:34:37;10.93;;;8.68;;
62790;SDS011;48830;53.426;10.300;2022-11-15T09:37:21;13.77;;;9.20;;
62790;SDS011;48830;53.426;10.300;2022-11-15T09:40:06;13.18;;;9.55;;
62790;SDS011;48830;53.426;10.300;2022-11-15T09:51:39;13.02;;;8.73;;
62790;SDS011;48830;53.426;10.300;2022-11-15T09:57:18;11.60;;;9.13;;
62790;SDS011;48830;53.426;10.300;2022-11-15T09:59:54;14.80;;;9.05;;
62790;SDS011;48830;53.426;10.300;2022-11-15T10:05:10;12.88;;;9.60;;
62790;SDS011;48830;53.426;10.300;2022-11-15T10:10:51;14.93;;;10.27;;
62790;SDS011;48830;53.426;10.300;2022-11-15T10:12:55;15.63;;;9.38;;
62790;SDS011;48830;53.426;10.300;2022-11-15T10:15:21;13.52;;;8.82;;
62790;SDS011;48830;53.426;10.300;2022-11-15T10:20:31;11.35;;;8.27;;
62790;SDS011;48830;53.426;10.300;2022-11-15T10:23:10;11.30;;;8.38;;
62790;SDS011;48830;53.426;10.300;2022-11-15T10:25:38;13.48;;;9.10;;
62790;SDS011;48830;53.426;10.300;2022-11-15T10:30:40;12.30;;;8.40;;
62790;SDS011;48830;53.426;10.300;2022-11-15T10:33:49;12.45;;;8.35;;
62790;SDS011;48830;53.426;10.300;2022-11-15T10:41:13;15.82;;;9.77;;
62790;SDS011;48830;53.426;10.300;2022-11-15T10:43:41;14.80;;;9.57;;
62790;SDS011;48830;53.426;10.300;2022-11-15T10:49:16;14.25;;;10.18;;
62790;SDS011;48830;53.426;10.300;2022-11-15T10:54:13;12.85;;;9.48;;
62790;SDS011;48830;53.426;10.300;2022-11-15T10:56:52;12.77;;;9.13;;
62790;SDS011;48830;53.426;10.300;2022-11-15T10:59:27;13.90;;;9.40;;
62790;SDS011;48830;53.426;10.300;2022-11-15T11:01:55;12.20;;;8.23;;
62790;SDS011;48830;53.426;10.300;2022-11-15T11:04:21;15.60;;;8.98;;
62790;SDS011;48830;53.426;10.300;2022-11-15T11:06:56;13.90;;;9.73;;
62790;SDS011;48830;53.426;10.300;2022-11-15T11:11:58;13.38;;;8.73;;
62790;SDS011;48830;53.426;10.300;2022-11-15T11:14:26;12.80;;;8.98;;
62790;SDS011;48830;53.426;10.300;2022-11-15T11:30:02;13.57;;;9.07;;
62790;SDS011;48830;53.426;10.300;2022-11-15T11:32:47;13.30;;;9.00;;
62790;SDS011;48830;53.426;10.300;2022-11-15T11:35:21;12.05;;;8.40;;
62790;SDS011;48830;53.426;10.300;2022-11-15T11:38:39;15.55;;;9.65;;
62790;SDS011;48830;53.426;10.300;2022-11-15T11:40:44;12.80;;;9.02;;
62790;SDS011;48830;53.426;10.300;2022-11-15T11:54:49;17.25;;;9.68;;
62790;SDS011;48830;53.426;10.300;2022-11-15T11:57:25;11.32;;;7.85;;
62790;SDS011;48830;53.426;10.300;2022-11-15T12:00:01;16.10;;;9.07;;
62790;SDS011;48830;53.426;10.300;2022-11-15T12:02:50;11.80;;;8.35;;
62790;SDS011;48830;53.426;10.300;2022-11-15T12:05:42;13.80;;;8.70;;
62790;SDS011;48830;53.426;10.300;2022-11-15T12:11:09;12.85;;;8.77;;
62790;SDS011;48830;53.426;10.300;2022-11-15T12:13:38;12.00;;;8.43;;
62790;SDS011;48830;53.426;10.300;2022-11-15T12:18:37;12.20;;;8.35;;
62790;SDS011;48830;53.426;10.300;2022-11-15T12:23:55;12.68;;;8.13;;
62790;SDS011;48830;53.426;10.300;2022-11-15T12:26:37;11.43;;;7.90;;
62790;SDS011;48830;53.426;10.300;2022-11-15T12:29:15;12.02;;;8.32;;
62790;SDS011;48830;53.426;10.300;2022-11-15T12:31:49;12.85;;;7.63;;
62790;SDS011;48830;53.426;10.300;2022-11-15T12:36:45;10.98;;;7.88;;
62790;SDS011;48830;53.426;10.300;2022-11-15T12:39:11;11.60;;;7.63;;
62790;SDS011;48830;53.426;10.300;2022-11-15T12:41:39;13.23;;;8.73;;
62790;SDS011;48830;53.426;10.300;2022-11-15T12:44:12;13.35;;;8.55;;
62790;SDS011;48830;53.426;10.300;2022-11-15T12:47:00;11.30;;;7.50;;
62790;SDS011;48830;53.426;10.300;2022-11-15T12:57:33;10.63;;;7.45;;
62790;SDS011;48830;53.426;10.300;2022-11-15T13:02:22;11.18;;;7.50;;
62790;SDS011;48830;53.426;10.300;2022-11-15T13:04:50;13.63;;;7.60;;
62790;SDS011;48830;53.426;10.300;2022-11-15T13:07:58;11.85;;;7.53;;
62790;SDS011;48830;53.426;10.300;2022-11-15T13:12:53;12.52;;;7.88;;
62790;SDS011;48830;53.426;10.300;2022-11-15T13:18:37;10.95;;;7.60;;
62790;SDS011;48830;53.426;10.300;2022-11-15T13:21:01;11.48;;;7.53;;
62790;SDS011;48830;53.426;10.300;2022-11-15T13:23:51;11.70;;;7.35;;
62790;SDS011;48830;53.426;10.300;2022-11-15T13:26:18;12.95;;;8.23;;
62790;SDS011;48830;53.426;10.300;2022-11-15T13:28:46;11.82;;;7.35;;
62790;SDS011;48830;53.426;10.300;2022-11-15T13:33:42;11.27;;;7.93;;
62790;SDS011;48830;53.426;10.300;2022-11-15T13:36:13;11.45;;;7.93;;
62790;SDS011;48830;53.426;10.300;2022-11-15T13:38:56;10.13;;;8.00;;
62790;SDS011;48830;53.426;10.300;2022-11-15T13:41:28;10.70;;;7.30;;
62790;SDS011;48830;53.426;10.300;2022-11-15T13:44:02;10.65;;;6.93;;
62790;SDS011;48830;53.426;10.300;2022-11-15T13:46:32;11.80;;;7.55;;
62790;SDS011;48830;53.426;10.300;2022-11-15T13:53:56;12.75;;;7.40;;
62790;SDS011;48830;53.426;10.300;2022-11-15T13:56:25;11.40;;;6.97;;
62790;SDS011;48830;53.426;10.300;2022-11-15T13:58:53;11.50;;;6.70;;
62790;SDS011;48830;53.426;10.300;2022-11-15T14:01:20;11.95;;;7.22;;
62790;SDS011;48830;53.426;10.300;2022-11-15T14:03:56;10.85;;;6.90;;
62790;SDS011;48830;53.426;10.300;2022-11-15T14:06:24;10.80;;;7.22;;
62790;SDS011;48830;53.426;10.300;2022-11-15T14:11:35;8.70;;;6.15;;
62790;SDS011;48830;53.426;10.300;2022-11-15T14:16:43;11.65;;;7.05;;
62790;SDS011;48830;53.426;10.300;2022-11-15T14:19:56;11.40;;;5.97;;
62790;SDS011;48830;53.426;10.300;2022-11-15T14:22:13;10.00;;;6.88;;
62790;SDS011;48830;53.426;10.300;2022-11-15T14:24:41;11.82;;;7.60;;
62790;SDS011;48830;53.426;10.300;2022-11-15T14:27:22;10.70;;;6.97;;
62790;SDS011;48830;53.426;10.300;2022-11-15T14:29:50;10.20;;;7.07;;
62790;SDS011;48830;53.426;10.300;2022-11-15T14:32:19;11.20;;;7.28;;
62790;SDS011;48830;53.426;10.300;2022-11-15T14:34:59;10.40;;;6.80;;
62790;SDS011;48830;53.426;10.300;2022-11-15T14:37:27;12.25;;;7.47;;
62790;SDS011;48830;53.426;10.300;2022-11-15T14:40:00;12.05;;;7.70;;
62790;SDS011;48830;53.426;10.300;2022-11-15T14:42:27;10.63;;;7.40;;
62790;SDS011;48830;53.426;10.300;2022-11-15T14:44:54;11.85;;;8.65;;
62790;SDS011;48830;53.426;10.300;2022-11-15T14:47:19;10.90;;;7.50;;
62790;SDS011;48830;53.426;10.300;2022-11-15T14:49:45;10.85;;;6.97;;
62790;SDS011;48830;53.426;10.300;2022-11-15T14:54:50;11.93;;;7.63;;
62790;SDS011;48830;53.426;10.300;2022-11-15T14:57:16;9.85;;;6.93;;
62790;SDS011;48830;53.426;10.300;2022-11-15T14:59:41;10.68;;;7.25;;
62790;SDS011;48830;53.426;10.300;2022-11-15T15:02:25;11.20;;;7.25;;
62790;SDS011;48830;53.426;10.300;2022-11-15T15:04:52;11.30;;;7.13;;
62790;SDS011;48830;53.426;10.300;2022-11-15T15:07:18;11.30;;;7.15;;
62790;SDS011;48830;53.426;10.300;2022-11-15T15:09:44;9.88;;;6.72;;
62790;SDS011;48830;53.426;10.300;2022-11-15T15:12:14;10.95;;;7.18;;
62790;SDS011;48830;53.426;10.300;2022-11-15T15:14:42;10.15;;;7.10;;
62790;SDS011;48830;53.426;10.300;2022-11-15T15:17:07;9.93;;;7.03;;
62790;SDS011;48830;53.426;10.300;2022-11-15T15:19:33;11.05;;;7.25;;
62790;SDS011;48830;53.426;10.300;2022-11-15T15:21:58;11.77;;;7.07;;
62790;SDS011;48830;53.426;10.300;2022-11-15T15:24:24;11.73;;;6.43;;
62790;SDS011;48830;53.426;10.300;2022-11-15T15:26:49;13.65;;;7.60;;
62790;SDS011;48830;53.426;10.300;2022-11-15T15:29:15;11.80;;;7.82;;
62790;SDS011;48830;53.426;10.300;2022-11-15T15:31:40;12.63;;;7.70;;
62790;SDS011;48830;53.426;10.300;2022-11-15T15:34:06;11.10;;;7.30;;
62790;SDS011;48830;53.426;10.300;2022-11-15T15:36:31;10.50;;;7.13;;
62790;SDS011;48830;53.426;10.300;2022-11-15T15:38:56;11.95;;;7.70;;
62790;SDS011;48830;53.426;10.300;2022-11-15T15:41:23;11.55;;;7.20;;
62790;SDS011;48830;53.426;10.300;2022-11-15T15:43:48;11.38;;;7.40;;
62790;SDS011;48830;53.426;10.300;2022-11-15T15:46:14;10.50;;;7.20;;
62790;SDS011;48830;53.426;10.300;2022-11-15T15:48:41;11.77;;;7.57;;
62790;SDS011;48830;53.426;10.300;2022-11-15T15:51:07;12.15;;;7.70;;
62790;SDS011;48830;53.426;10.300;2022-11-15T15:53:33;12.38;;;7.47;;
62790;SDS011;48830;53.426;10.300;2022-11-15T15:55:59;12.63;;;7.63;;
62790;SDS011;48830;53.426;10.300;2022-11-15T15:58:24;10.80;;;7.65;;
62790;SDS011;48830;53.426;10.300;2022-11-15T16:00:50;14.50;;;7.30;;
62790;SDS011;48830;53.426;10.300;2022-11-15T16:03:15;12.40;;;7.72;;
62790;SDS011;48830;53.426;10.300;2022-11-15T16:05:41;10.55;;;7.30;;
62790;SDS011;48830;53.426;10.300;2022-11-15T16:08:09;9.95;;;6.47;;
62790;SDS011;48830;53.426;10.300;2022-11-15T16:10:42;12.18;;;8.15;;
62790;SDS011;48830;53.426;10.300;2022-11-15T16:13:07;11.63;;;7.90;;
62790;SDS011;48830;53.426;10.300;2022-11-15T16:15:33;11.07;;;7.82;;
62790;SDS011;48830;53.426;10.300;2022-11-15T16:18:00;13.07;;;8.38;;
62790;SDS011;48830;53.426;10.300;2022-11-15T16:23:02;11.20;;;7.70;;
62790;SDS011;48830;53.426;10.300;2022-11-15T16:25:30;12.00;;;7.65;;
62790;SDS011;48830;53.426;10.300;2022-11-15T16:28:02;11.57;;;8.07;;
62790;SDS011;48830;53.426;10.300;2022-11-15T16:30:28;13.80;;;8.75;;
62790;SDS011;48830;53.426;10.300;2022-11-15T16:32:53;17.00;;;10.82;;
62790;SDS011;48830;53.426;10.300;2022-11-15T16:35:19;13.80;;;9.03;;
62790;SDS011;48830;53.426;10.300;2022-11-15T16:37:44;13.07;;;8.65;;
62790;SDS011;48830;53.426;10.300;2022-11-15T16:40:23;12.97;;;8.90;;
62790;SDS011;48830;53.426;10.300;2022-11-15T16:42:49;13.70;;;9.43;;
62790;SDS011;48830;53.426;10.300;2022-11-15T16:45:15;13.70;;;9.40;;
62790;SDS011;48830;53.426;10.300;2022-11-15T16:47:40;14.88;;;9.43;;
62790;SDS011;48830;53.426;10.300;2022-11-15T16:50:07;16.33;;;10.30;;
62790;SDS011;48830;53.426;10.300;2022-11-15T16:52:42;18.15;;;10.27;;
62790;SDS011;48830;53.426;10.300;2022-11-15T16:55:08;15.10;;;9.60;;
62790;SDS011;48830;53.426;10.300;2022-11-15T16:57:33;15.03;;;9.43;;
62790;SDS011;48830;53.426;10.300;2022-11-15T16:59:59;16.47;;;9.70;;
62790;SDS011;48830;53.426;10.300;2022-11-15T17:02:24;15.48;;;9.77;;
62790;SDS011;48830;53.426;10.300;2022-11-15T17:04:50;14.57;;;9.13;;
62790;SDS011;48830;53.426;10.300;2022-11-15T17:07:15;12.43;;;8.60;;
62790;SDS011;48830;53.426;10.300;2022-11-15T17:09:40;13.73;;;9.03;;
62790;SDS011;48830;53.426;10.300;2022-11-15T17:12:06;14.60;;;9.43;;
62790;SDS011;48830;53.426;10.300;2022-11-15T17:14:32;14.23;;;8.82;;
62790;SDS011;48830;53.426;10.300;2022-11-15T17:16:57;13.43;;;9.10;;
62790;SDS011;48830;53.426;10.300;2022-11-15T17:19:23;13.85;;;9.13;;
62790;SDS011;48830;53.426;10.300;2022-11-15T17:21:48;12.35;;;8.60;;
62790;SDS011;48830;53.426;10.300;2022-11-15T17:24:13;12.07;;;8.30;;
62790;SDS011;48830;53.426;10.300;2022-11-15T17:26:39;15.73;;;9.23;;
62790;SDS011;48830;53.426;10.300;2022-11-15T17:29:04;14.30;;;9.10;;
62790;SDS011;48830;53.426;10.300;2022-11-15T17:31:32;13.87;;;8.20;;
62790;SDS011;48830;53.426;10.300;2022-11-15T17:34:00;12.13;;;7.97;;
62790;SDS011;48830;53.426;10.300;2022-11-15T17:36:27;14.38;;;8.30;;